Time;durP1;ratioP1;P1;durP2;ratioP2;P2;SDS_P1;SDS_P2;PMS_P1;PMS_P2;Temp;Humidity;BMP_temperature;BMP_pressure;BME280_temperature;BME280_humidity;BME280_pressure;Samples;Min_cycle;Max_cycle;Signal;HPM_P1;HPM_P2
2023/10/20 00:02:05;;;;;;;32.63;19.08;;;;;;;;;;4978513;28;20053;-73
2023/10/20 00:04:31;;;;;;;28.25;17.27;;;;;;;;;;4979292;28;20085;-72
2023/10/20 00:06:58;;;;;;;26.50;16.80;;;;;;;;;;4979857;28;20526;-76
2023/10/20 00:09:24;;;;;;;27.90;17.40;;;;;;;;;;4979450;28;20114;-75
2023/10/20 00:11:51;;;;;;;31.40;18.67;;;;;;;;;;4977319;28;20534;-72
2023/10/20 00:14:17;;;;;;;28.67;18.77;;;;;;;;;;4980373;28;20212;-71
2023/10/20 00:16:42;;;;;;;32.08;17.85;;;;;;;;;;4979138;28;20165;-70
2023/10/20 00:19:08;;;;;;;31.20;18.67;;;;;;;;;;4978092;28;20126;-72
2023/10/20 00:21:35;;;;;;;32.08;19.67;;;;;;;;;;4978780;28;20046;-71
2023/10/20 00:24:00;;;;;;;34.45;18.40;;;;;;;;;;4979376;28;20062;-74
2023/10/20 00:26:26;;;;;;;34.45;17.67;;;;;;;;;;4979977;28;20054;-73
2023/10/20 00:28:52;;;;;;;26.48;17.38;;;;;;;;;;4978763;28;20054;-72
2023/10/20 00:31:18;;;;;;;29.05;18.75;;;;;;;;;;4979525;28;20054;-73
2023/10/20 00:33:45;;;;;;;30.70;18.48;;;;;;;;;;4977617;28;20054;-74
2023/10/20 00:36:11;;;;;;;33.85;17.73;;;;;;;;;;4979611;28;20050;-73
2023/10/20 00:38:37;;;;;;;29.42;19.50;;;;;;;;;;4978553;28;20423;-73
2023/10/20 00:41:02;;;;;;;26.73;17.92;;;;;;;;;;4961617;28;20065;-73
2023/10/20 00:43:35;;;;;;;39.22;19.50;;;;;;;;;;4977902;28;20046;-71
2023/10/20 00:46:01;;;;;;;27.02;17.02;;;;;;;;;;4979190;28;20141;-70
2023/10/20 00:48:27;;;;;;;26.77;17.08;;;;;;;;;;4977858;28;20053;-70
2023/10/20 00:50:53;;;;;;;28.10;17.63;;;;;;;;;;4977141;28;20137;-73
2023/10/20 00:53:19;;;;;;;28.52;17.70;;;;;;;;;;4979835;28;20057;-73
2023/10/20 00:55:45;;;;;;;31.58;19.02;;;;;;;;;;4977664;28;20106;-73
2023/10/20 00:58:11;;;;;;;30.25;19.75;;;;;;;;;;4978276;28;20049;-73
2023/10/20 01:00:36;;;;;;;36.67;18.63;;;;;;;;;;4977630;28;20050;-73
2023/10/20 01:03:02;;;;;;;32.65;19.38;;;;;;;;;;4979839;28;20457;-73
2023/10/20 01:05:27;;;;;;;28.80;18.35;;;;;;;;;;4977449;28;20056;-73
2023/10/20 01:07:53;;;;;;;32.97;19.17;;;;;;;;;;4980817;28;20105;-72
2023/10/20 01:10:20;;;;;;;31.20;19.20;;;;;;;;;;4983615;28;20049;-73
2023/10/20 01:12:45;;;;;;;34.90;18.67;;;;;;;;;;4981395;28;20054;-71
2023/10/20 01:15:14;;;;;;;34.28;18.85;;;;;;;;;;4981255;28;20524;-72
2023/10/20 01:17:40;;;;;;;33.15;19.45;;;;;;;;;;4980541;28;20136;-71
2023/10/20 01:20:06;;;;;;;30.10;18.48;;;;;;;;;;4980463;28;20085;-72
2023/10/20 01:22:33;;;;;;;29.40;18.42;;;;;;;;;;4992794;28;20148;-70
2023/10/20 01:24:58;;;;;;;35.85;19.65;;;;;;;;;;4980332;28;20054;-72
2023/10/20 01:27:24;;;;;;;28.70;18.73;;;;;;;;;;4982573;28;20057;-71
2023/10/20 01:29:50;;;;;;;30.27;18.88;;;;;;;;;;4997766;28;20058;-72
2023/10/20 01:32:15;;;;;;;38.65;19.23;;;;;;;;;;4981989;28;20054;-73
2023/10/20 01:34:41;;;;;;;40.20;21.52;;;;;;;;;;4980243;28;20050;-71
2023/10/20 01:37:10;;;;;;;35.83;20.50;;;;;;;;;;4980698;28;20042;-71
2023/10/20 01:39:36;;;;;;;29.33;18.83;;;;;;;;;;4981327;28;20057;-73
2023/10/20 01:42:01;;;;;;;29.58;17.85;;;;;;;;;;4964794;28;20054;-71
2023/10/20 01:44:28;;;;;;;30.98;19.45;;;;;;;;;;4981876;28;20038;-71
2023/10/20 01:46:54;;;;;;;32.03;18.60;;;;;;;;;;4980261;28;20046;-71
2023/10/20 01:49:20;;;;;;;31.55;18.90;;;;;;;;;;4980497;28;20042;-74
2023/10/20 01:51:46;;;;;;;33.20;18.77;;;;;;;;;;4982681;28;20042;-71
2023/10/20 01:54:12;;;;;;;29.90;17.80;;;;;;;;;;4983293;28;20050;-77
2023/10/20 01:56:37;;;;;;;28.05;18.00;;;;;;;;;;4980895;28;20077;-71
2023/10/20 01:59:05;;;;;;;30.75;17.58;;;;;;;;;;4979507;28;20054;-72
2023/10/20 02:01:31;;;;;;;29.15;17.95;;;;;;;;;;4979637;28;20061;-73
2023/10/20 02:03:56;;;;;;;25.05;16.85;;;;;;;;;;4980041;28;20050;-71
2023/10/20 02:06:22;;;;;;;27.88;16.98;;;;;;;;;;4982452;28;20062;-74
2023/10/20 02:08:47;;;;;;;36.95;19.60;;;;;;;;;;4980259;28;20046;-72
2023/10/20 02:11:13;;;;;;;31.90;18.48;;;;;;;;;;4981468;28;20046;-73
2023/10/20 02:13:38;;;;;;;30.15;18.50;;;;;;;;;;4981082;28;20145;-71
2023/10/20 02:16:07;;;;;;;35.30;22.08;;;;;;;;;;4980457;28;20137;-73
2023/10/20 02:18:32;;;;;;;31.90;20.73;;;;;;;;;;4979327;28;20069;-74
2023/10/20 02:21:03;;;;;;;35.83;21.15;;;;;;;;;;4978716;28;20054;-71
2023/10/20 02:23:31;;;;;;;32.60;19.52;;;;;;;;;;4964922;28;20112;-72
2023/10/20 02:26:02;;;;;;;31.27;18.38;;;;;;;;;;4980364;28;20054;-73
2023/10/20 02:28:27;;;;;;;38.90;21.52;;;;;;;;;;4980134;28;20057;-75
2023/10/20 02:30:55;;;;;;;35.40;19.40;;;;;;;;;;4979825;28;20096;-77
2023/10/20 02:33:21;;;;;;;35.83;21.20;;;;;;;;;;4980152;28;20137;-77
2023/10/20 02:35:46;;;;;;;36.33;22.95;;;;;;;;;;4980953;28;20061;-74
2023/10/20 02:38:12;;;;;;;36.53;21.95;;;;;;;;;;4980175;28;20097;-73
2023/10/20 02:40:37;;;;;;;40.25;20.52;;;;;;;;;;4963542;28;20503;-72
2023/10/20 02:43:03;;;;;;;35.78;21.98;;;;;;;;;;4979755;28;21064;-74
2023/10/20 02:45:28;;;;;;;41.40;23.55;;;;;;;;;;4980015;28;20403;-75
2023/10/20 02:47:53;;;;;;;45.45;23.05;;;;;;;;;;4982227;28;20064;-71
2023/10/20 02:50:19;;;;;;;41.28;24.65;;;;;;;;;;4980164;28;20399;-73
2023/10/20 02:52:44;;;;;;;49.88;22.25;;;;;;;;;;4995946;28;20042;-74
2023/10/20 02:55:10;;;;;;;33.85;21.75;;;;;;;;;;4979338;28;20403;-71
2023/10/20 02:57:36;;;;;;;36.95;21.88;;;;;;;;;;4980086;28;20050;-75
2023/10/20 03:00:10;;;;;;;39.63;24.60;;;;;;;;;;4980726;28;20046;-73
2023/10/20 03:02:36;;;;;;;38.80;22.73;;;;;;;;;;4979246;28;20050;-71
2023/10/20 03:05:06;;;;;;;43.60;24.58;;;;;;;;;;4980269;28;20046;-74
2023/10/20 03:07:32;;;;;;;40.30;23.40;;;;;;;;;;4980841;28;20054;-72
2023/10/20 03:09:57;;;;;;;40.28;23.27;;;;;;;;;;4980904;28;20050;-73
2023/10/20 03:12:24;;;;;;;36.33;21.88;;;;;;;;;;4979695;28;20046;-71
2023/10/20 03:14:49;;;;;;;40.00;21.60;;;;;;;;;;4980120;28;20495;-73
2023/10/20 03:17:16;;;;;;;36.05;22.17;;;;;;;;;;4975706;28;20050;-70
2023/10/20 03:19:44;;;;;;;36.15;21.58;;;;;;;;;;4980388;28;20558;-71
2023/10/20 03:22:11;;;;;;;42.85;23.35;;;;;;;;;;4979250;28;20046;-72
2023/10/20 03:24:36;;;;;;;40.45;23.35;;;;;;;;;;4979064;28;20054;-73
2023/10/20 03:27:02;;;;;;;36.08;22.15;;;;;;;;;;4962476;28;20058;-71
2023/10/20 03:29:28;;;;;;;40.58;23.13;;;;;;;;;;4978979;28;20082;-74
2023/10/20 03:31:53;;;;;;;42.88;23.92;;;;;;;;;;4978070;28;20054;-73
2023/10/20 03:34:18;;;;;;;40.83;23.65;;;;;;;;;;4977421;28;20512;-73
2023/10/20 03:36:44;;;;;;;39.67;23.73;;;;;;;;;;4977210;28;20046;-69
2023/10/20 03:39:21;;;;;;;42.28;23.88;;;;;;;;;;4977793;28;20053;-72
2023/10/20 03:41:50;;;;;;;44.58;23.83;;;;;;;;;;4978916;28;20070;-70
2023/10/20 03:44:16;;;;;;;37.05;21.13;;;;;;;;;;4978328;28;20050;-71
2023/10/20 03:46:48;;;;;;;54.78;25.85;;;;;;;;;;4977696;28;20082;-74
2023/10/20 03:49:15;;;;;;;;;;;;;;;;;;4979228;28;20083;-74
2023/10/20 03:51:48;;;;;;;50.72;26.30;;;;;;;;;;4979840;28;19921;-73
2023/10/20 03:54:15;;;;;;;76.32;32.47;;;;;;;;;;4979694;28;20426;-73
2023/10/20 03:56:41;;;;;;;58.92;30.75;;;;;;;;;;4979272;28;20425;-74
2023/10/20 03:59:07;;;;;;;46.88;24.98;;;;;;;;;;4977790;28;20050;-73
2023/10/20 04:01:33;;;;;;;41.05;23.80;;;;;;;;;;4979585;28;20058;-73
2023/10/20 04:03:59;;;;;;;42.20;23.85;;;;;;;;;;4979972;28;20042;-74
2023/10/20 04:06:24;;;;;;;44.67;24.17;;;;;;;;;;4979884;28;20046;-72
2023/10/20 04:08:50;;;;;;;42.58;23.10;;;;;;;;;;4979289;28;20058;-70
2023/10/20 04:11:15;;;;;;;42.20;22.77;;;;;;;;;;4978631;28;20057;-71
2023/10/20 04:13:41;;;;;;;36.20;22.30;;;;;;;;;;4978694;28;20050;-71
2023/10/20 04:16:13;;;;;;;43.03;23.33;;;;;;;;;;4979455;28;20050;-74
2023/10/20 04:18:40;;;;;;;33.85;20.83;;;;;;;;;;4978888;28;20050;-70
2023/10/20 04:21:05;;;;;;;36.40;20.92;;;;;;;;;;4979254;28;20057;-71
2023/10/20 04:23:31;;;;;;;35.85;19.08;;;;;;;;;;4977438;28;20047;-73
2023/10/20 04:25:57;;;;;;;32.92;21.20;;;;;;;;;;4979924;28;20485;-71
2023/10/20 04:28:35;;;;;;;33.33;19.23;;;;;;;;;;4977787;28;20096;-73
2023/10/20 05:02:40;;;;;;;37.20;21.08;;;;;;;;;;4977913;28;20112;-73
2023/10/20 05:05:26;;;;;;;43.03;23.40;;;;;;;;;;4977417;28;20125;-74
2023/10/20 05:07:58;;;;;;;39.55;22.50;;;;;;;;;;4978508;28;20097;-73
2023/10/20 05:10:24;;;;;;;34.15;21.13;;;;;;;;;;4976988;28;20412;-71
2023/10/20 05:12:50;;;;;;;32.55;20.33;;;;;;;;;;4977174;28;20054;-72
2023/10/20 05:15:17;;;;;;;37.90;21.60;;;;;;;;;;4978712;28;20057;-74
2023/10/20 05:17:43;;;;;;;31.13;19.08;;;;;;;;;;4974472;28;20050;-72
2023/10/20 05:20:19;;;;;;;36.03;20.83;;;;;;;;;;4978275;28;20050;-74
2023/10/20 05:22:46;;;;;;;39.45;22.15;;;;;;;;;;4978166;28;20042;-72
2023/10/20 05:25:11;;;;;;;39.67;22.55;;;;;;;;;;4978098;28;20038;-71
2023/10/20 05:27:37;;;;;;;42.05;22.88;;;;;;;;;;4977902;28;20050;-71
2023/10/20 05:30:03;;;;;;;39.70;21.27;;;;;;;;;;4977995;28;20058;-71
2023/10/20 05:32:31;;;;;;;33.28;20.52;;;;;;;;;;4978207;28;20123;-71
2023/10/20 05:35:04;;;;;;;36.47;19.65;;;;;;;;;;4977120;28;20046;-73
2023/10/20 05:37:32;;;;;;;31.85;19.80;;;;;;;;;;4978386;28;20062;-74
2023/10/20 05:39:58;;;;;;;33.58;19.80;;;;;;;;;;4978260;28;20078;-73
2023/10/20 05:42:24;;;;;;;33.90;19.70;;;;;;;;;;4978603;28;20069;-73
2023/10/20 05:47:33;;;;;;;31.55;18.25;;;;;;;;;;4978530;28;20097;-72
2023/10/20 05:50:00;;;;;;;28.83;16.13;;;;;;;;;;4978145;28;20090;-72
2023/10/20 05:52:26;;;;;;;32.65;18.50;;;;;;;;;;4978278;28;20053;-72
2023/10/20 05:54:53;;;;;;;33.30;20.85;;;;;;;;;;4980693;28;20496;-72
2023/10/20 05:57:19;;;;;;;37.00;21.70;;;;;;;;;;4981412;28;20050;-74
2023/10/20 05:59:46;;;;;;;37.03;20.75;;;;;;;;;;4974642;28;20101;-71
2023/10/20 06:02:11;;;;;;;31.05;20.17;;;;;;;;;;4979319;28;20060;-71
2023/10/20 06:04:37;;;;;;;31.73;18.30;;;;;;;;;;4980208;28;20050;-71
2023/10/20 06:07:04;;;;;;;29.92;18.30;;;;;;;;;;4981305;28;20054;-72
2023/10/20 06:09:29;;;;;;;33.08;20.13;;;;;;;;;;4981045;28;20278;-72
2023/10/20 06:11:55;;;;;;;33.72;20.45;;;;;;;;;;4980081;28;20133;-74
2023/10/20 06:14:21;;;;;;;34.78;19.08;;;;;;;;;;4979266;28;20086;-73
2023/10/20 06:16:46;;;;;;;30.15;19.08;;;;;;;;;;4979801;28;20065;-72
2023/10/20 06:19:12;;;;;;;32.70;18.40;;;;;;;;;;4980136;28;20050;-74
2023/10/20 06:21:42;;;;;;;43.00;21.17;;;;;;;;;;4979003;28;20054;-72
2023/10/20 06:24:08;;;;;;;33.20;18.42;;;;;;;;;;4978384;28;20241;-73
2023/10/20 06:26:34;;;;;;;33.35;17.63;;;;;;;;;;4979411;28;20105;-72
2023/10/20 06:28:59;;;;;;;32.10;17.77;;;;;;;;;;4978547;28;20440;-72
2023/10/20 06:31:38;;;;;;;33.38;20.15;;;;;;;;;;4978357;28;20042;-71
2023/10/20 06:34:24;;;;;;;33.08;20.67;;;;;;;;;;4979612;28;20157;-74
2023/10/20 06:37:08;;;;;;;28.17;18.02;;;;;;;;;;4966293;28;20681;-71
2023/10/20 06:39:35;;;;;;;35.70;19.77;;;;;;;;;;4979973;28;20069;-74
2023/10/20 06:42:00;;;;;;;32.15;20.10;;;;;;;;;;4979874;28;20177;-74
2023/10/20 06:44:26;;;;;;;37.08;20.52;;;;;;;;;;4979701;28;21803;-72
2023/10/20 06:46:52;;;;;;;33.83;19.63;;;;;;;;;;4960837;28;20061;-72
2023/10/20 06:49:18;;;;;;;32.95;19.58;;;;;;;;;;4979829;28;20502;-74
2023/10/20 06:51:45;;;;;;;31.00;19.77;;;;;;;;;;4978210;28;20885;-73
2023/10/20 06:54:12;;;;;;;30.65;18.83;;;;;;;;;;4977615;28;20530;-72
2023/10/20 06:56:37;;;;;;;32.25;18.08;;;;;;;;;;4977171;28;20718;-73
2023/10/20 06:59:03;;;;;;;36.22;21.27;;;;;;;;;;4979926;28;20104;-72
2023/10/20 07:01:32;;;;;;;31.65;18.08;;;;;;;;;;4978823;28;20161;-73
2023/10/20 07:03:58;;;;;;;33.17;18.90;;;;;;;;;;4979814;28;20775;-71
2023/10/20 07:06:24;;;;;;;31.55;19.27;;;;;;;;;;4979422;28;20058;-72
2023/10/20 07:08:50;;;;;;;34.47;20.08;;;;;;;;;;4980224;28;20056;-71
2023/10/20 07:11:16;;;;;;;29.63;17.98;;;;;;;;;;4979394;28;20043;-73
2023/10/20 07:13:44;;;;;;;30.27;18.45;;;;;;;;;;4979682;28;20391;-73
2023/10/20 07:16:12;;;;;;;30.50;16.27;;;;;;;;;;4980125;28;20057;-73
2023/10/20 07:18:40;;;;;;;26.70;16.67;;;;;;;;;;4977411;28;20073;-73
2023/10/20 07:21:06;;;;;;;24.63;16.13;;;;;;;;;;4979513;28;20116;-71
2023/10/20 07:23:34;;;;;;;25.05;16.25;;;;;;;;;;4980996;28;20070;-71
2023/10/20 07:26:00;;;;;;;19.23;13.55;;;;;;;;;;4979279;28;20049;-70
2023/10/20 07:28:25;;;;;;;30.33;16.98;;;;;;;;;;4979193;28;20487;-69
2023/10/20 07:30:53;;;;;;;25.17;15.95;;;;;;;;;;4979381;28;20528;-70
2023/10/20 07:33:19;;;;;;;28.40;16.20;;;;;;;;;;4979981;28;20046;-73
2023/10/20 07:35:45;;;;;;;25.42;15.65;;;;;;;;;;4980712;28;20053;-71
2023/10/20 07:38:12;;;;;;;25.15;15.32;;;;;;;;;;4979479;28;20046;-74
2023/10/20 07:40:38;;;;;;;25.55;14.80;;;;;;;;;;4978741;28;20050;-71
2023/10/20 07:43:06;;;;;;;26.58;15.15;;;;;;;;;;4980379;28;20069;-71
2023/10/20 07:45:40;;;;;;;25.67;15.63;;;;;;;;;;4980135;28;20042;-72
2023/10/20 07:48:05;;;;;;;25.45;16.83;;;;;;;;;;4980018;28;20086;-71
2023/10/20 07:50:31;;;;;;;27.60;16.10;;;;;;;;;;4979328;28;20381;-72
2023/10/20 07:52:56;;;;;;;25.67;15.82;;;;;;;;;;4978049;28;20451;-75
2023/10/20 07:55:22;;;;;;;32.80;18.08;;;;;;;;;;4980354;28;20626;-72
2023/10/20 07:57:47;;;;;;;28.70;17.50;;;;;;;;;;4980215;28;20061;-74
2023/10/20 08:00:13;;;;;;;27.30;16.58;;;;;;;;;;4979661;28;20057;-72
2023/10/20 08:02:39;;;;;;;31.80;19.00;;;;;;;;;;4978637;28;20073;-71
2023/10/20 08:05:05;;;;;;;29.85;18.02;;;;;;;;;;4980293;28;20066;-71
2023/10/20 08:07:31;;;;;;;26.80;17.20;;;;;;;;;;4979608;28;20042;-71
2023/10/20 08:09:56;;;;;;;31.92;18.35;;;;;;;;;;4979811;28;20057;-74
2023/10/20 08:12:22;;;;;;;31.65;19.35;;;;;;;;;;4979072;28;20061;-71
2023/10/20 08:14:47;;;;;;;35.78;17.52;;;;;;;;;;4977478;28;20057;-71
2023/10/20 08:17:13;;;;;;;32.67;19.20;;;;;;;;;;4978460;28;20909;-74
2023/10/20 08:19:44;;;;;;;29.88;17.38;;;;;;;;;;4980094;28;20079;-73
2023/10/20 08:22:09;;;;;;;28.80;17.67;;;;;;;;;;4979886;28;20069;-73
2023/10/20 08:24:35;;;;;;;32.25;17.70;;;;;;;;;;4978277;28;20050;-73
2023/10/20 08:27:00;;;;;;;24.48;15.55;;;;;;;;;;4979584;28;20128;-75
2023/10/20 08:29:27;;;;;;;24.58;16.38;;;;;;;;;;4979585;28;20061;-72
2023/10/20 08:31:52;;;;;;;27.75;15.68;;;;;;;;;;4979325;28;20046;-73
2023/10/20 08:34:18;;;;;;;22.30;14.85;;;;;;;;;;4978733;28;20506;-71
2023/10/20 08:36:43;;;;;;;23.75;13.90;;;;;;;;;;4978618;28;20886;-72
2023/10/20 08:39:19;;;;;;;21.30;12.45;;;;;;;;;;4979375;28;20080;-73
2023/10/20 08:41:45;;;;;;;20.88;13.32;;;;;;;;;;4979332;28;20781;-75
2023/10/20 08:44:11;;;;;;;22.13;14.77;;;;;;;;;;4979254;28;20042;-71
2023/10/20 08:46:40;;;;;;;21.83;14.68;;;;;;;;;;4975935;28;20050;-72
2023/10/20 08:49:07;;;;;;;21.98;14.77;;;;;;;;;;4977729;28;20122;-72
2023/10/20 08:51:33;;;;;;;22.15;13.75;;;;;;;;;;4972356;28;20058;-73
2023/10/20 08:53:58;;;;;;;23.35;14.20;;;;;;;;;;4975770;28;20069;-72
2023/10/20 08:56:24;;;;;;;26.92;15.27;;;;;;;;;;4975919;28;20070;-73
2023/10/20 08:58:49;;;;;;;23.13;15.15;;;;;;;;;;4959215;28;20045;-74
2023/10/20 09:01:16;;;;;;;36.38;15.25;;;;;;;;;;4958627;28;20046;-72
2023/10/20 09:03:48;;;;;;;23.08;12.80;;;;;;;;;;4976043;28;20550;-74
2023/10/20 09:06:14;;;;;;;24.17;13.35;;;;;;;;;;4976255;28;20042;-71
2023/10/20 09:08:47;;;;;;;18.00;11.82;;;;;;;;;;4974861;28;20053;-74
2023/10/20 09:11:12;;;;;;;19.73;11.85;;;;;;;;;;4975893;28;20144;-73
2023/10/20 09:13:40;;;;;;;19.90;12.38;;;;;;;;;;4975760;28;20644;-72
2023/10/20 09:16:11;;;;;;;16.25;11.43;;;;;;;;;;4977353;28;20070;-72
2023/10/20 09:18:47;;;;;;;18.98;11.98;;;;;;;;;;4958213;28;20209;-74
2023/10/20 09:21:18;;;;;;;19.30;12.02;;;;;;;;;;4975419;28;20050;-71
2023/10/20 09:23:54;;;;;;;17.30;11.70;;;;;;;;;;4976043;28;20050;-70
2023/10/20 09:26:20;;;;;;;21.00;12.00;;;;;;;;;;4977119;28;20053;-74
2023/10/20 09:28:50;;;;;;;17.15;10.98;;;;;;;;;;4959561;28;20042;-72
2023/10/20 09:31:19;;;;;;;15.90;10.77;;;;;;;;;;4980093;28;20097;-71
2023/10/20 09:33:45;;;;;;;19.75;10.98;;;;;;;;;;4980084;28;20968;-73
2023/10/20 09:36:11;;;;;;;18.55;11.07;;;;;;;;;;4979741;28;20177;-73
2023/10/20 09:38:37;;;;;;;21.88;11.93;;;;;;;;;;4979089;28;20577;-73
2023/10/20 09:41:11;;;;;;;19.25;12.63;;;;;;;;;;4962762;28;20050;-71
2023/10/20 09:43:45;;;;;;;22.45;13.90;;;;;;;;;;4980655;28;20066;-72
2023/10/20 09:46:19;;;;;;;25.48;13.65;;;;;;;;;;4963339;28;20621;-73
2023/10/20 09:48:50;;;;;;;17.80;12.52;;;;;;;;;;4980223;28;20046;-70
2023/10/20 09:51:18;;;;;;;19.75;13.30;;;;;;;;;;4978084;28;20587;-71
2023/10/20 09:53:44;;;;;;;15.55;10.18;;;;;;;;;;4980840;28;20042;-72
2023/10/20 09:56:10;;;;;;;14.82;10.13;;;;;;;;;;4979213;28;20053;-71
2023/10/20 09:58:40;;;;;;;18.45;11.45;;;;;;;;;;4979932;28;20558;-73
2023/10/20 10:01:06;;;;;;;19.65;12.10;;;;;;;;;;4978661;28;20677;-73
2023/10/20 10:03:39;;;;;;;16.35;10.48;;;;;;;;;;4963122;28;20137;-73
2023/10/20 10:06:23;;;;;;;15.40;10.48;;;;;;;;;;4980052;28;20054;-72
2023/10/20 10:08:52;;;;;;;16.48;10.70;;;;;;;;;;4980118;28;20061;-74
2023/10/20 10:11:30;;;;;;;14.93;10.25;;;;;;;;;;4979424;28;20065;-72
2023/10/20 10:14:01;;;;;;;13.90;8.88;;;;;;;;;;4980202;28;20081;-72
2023/10/20 10:16:27;;;;;;;14.07;9.63;;;;;;;;;;4965258;28;20045;-75
2023/10/20 10:18:54;;;;;;;12.05;8.60;;;;;;;;;;4979983;28;20046;-72
2023/10/20 10:21:30;;;;;;;13.75;8.55;;;;;;;;;;4980088;28;20052;-74
2023/10/20 10:24:16;;;;;;;13.30;7.32;;;;;;;;;;4964761;28;20046;-71
2023/10/20 10:26:56;;;;;;;10.80;8.02;;;;;;;;;;4981060;28;21155;-70
2023/10/20 10:29:53;;;;;;;10.07;7.50;;;;;;;;;;4981416;28;20046;-71
2023/10/20 10:32:23;;;;;;;9.13;7.13;;;;;;;;;;4981698;28;20042;-71
2023/10/20 10:34:53;;;;;;;11.90;7.07;;;;;;;;;;4981021;28;20878;-72
2023/10/20 10:37:38;;;;;;;10.30;6.65;;;;;;;;;;4980706;28;20046;-71
2023/10/20 10:40:22;;;;;;;11.02;7.80;;;;;;;;;;4980468;28;20101;-73
2023/10/20 10:42:52;;;;;;;8.82;7.03;;;;;;;;;;4979066;28;20053;-70
2023/10/20 10:45:22;;;;;;;7.57;6.40;;;;;;;;;;4979582;28;20137;-70
2023/10/20 10:47:49;;;;;;;7.32;5.82;;;;;;;;;;4980571;28;20038;-72
2023/10/20 10:50:16;;;;;;;7.97;5.57;;;;;;;;;;4978835;28;20038;-73
2023/10/20 10:52:43;;;;;;;7.10;5.43;;;;;;;;;;4977168;28;20054;-73
2023/10/20 10:55:09;;;;;;;6.70;5.30;;;;;;;;;;4977381;28;20050;-71
2023/10/20 10:57:36;;;;;;;5.72;5.22;;;;;;;;;;4977916;28;20050;-73
2023/10/20 11:00:03;;;;;;;7.38;5.57;;;;;;;;;;4978086;28;20042;-73
2023/10/20 11:02:29;;;;;;;6.88;5.40;;;;;;;;;;4977561;28;20049;-72
2023/10/20 11:04:55;;;;;;;7.53;6.03;;;;;;;;;;4976370;28;20051;-70
2023/10/20 11:07:22;;;;;;;7.28;5.93;;;;;;;;;;4978844;28;20050;-73
2023/10/20 11:09:47;;;;;;;7.70;6.35;;;;;;;;;;4994124;28;20046;-70
2023/10/20 11:12:13;;;;;;;7.72;6.00;;;;;;;;;;4979105;28;20048;-72
2023/10/20 11:14:39;;;;;;;7.00;5.60;;;;;;;;;;4978900;28;20491;-72
2023/10/20 11:17:05;;;;;;;10.27;6.70;;;;;;;;;;4975868;28;20047;-72
2023/10/20 11:19:31;;;;;;;9.20;6.18;;;;;;;;;;4978098;28;20054;-70
2023/10/20 11:21:57;;;;;;;6.78;4.97;;;;;;;;;;4979229;28;20116;-72
2023/10/20 11:24:34;;;;;;;5.78;3.78;;;;;;;;;;4977414;28;20038;-72
2023/10/20 11:27:05;;;;;;;5.55;4.03;;;;;;;;;;4977314;28;20061;-71
2023/10/20 11:29:32;;;;;;;7.50;5.00;;;;;;;;;;4978841;28;20050;-73
2023/10/20 11:32:08;;;;;;;6.38;4.82;;;;;;;;;;4978070;28;20084;-71
2023/10/20 11:34:37;;;;;;;5.70;4.38;;;;;;;;;;4977941;28;20685;-70
2023/10/20 11:37:04;;;;;;;3.95;3.55;;;;;;;;;;4976788;28;20073;-73
2023/10/20 11:39:32;;;;;;;3.95;3.25;;;;;;;;;;4977135;28;20601;-72
2023/10/20 11:41:58;;;;;;;4.97;3.30;;;;;;;;;;4978220;28;20149;-73
2023/10/20 11:44:26;;;;;;;6.88;3.95;;;;;;;;;;4993500;28;20046;-73
2023/10/20 11:46:56;;;;;;;4.97;3.13;;;;;;;;;;4977615;28;20042;-70
2023/10/20 11:49:24;;;;;;;5.65;2.17;;;;;;;;;;4977398;28;20050;-69
2023/10/20 11:51:50;;;;;;;2.38;2.17;;;;;;;;;;4977375;28;20038;-71
2023/10/20 11:54:16;;;;;;;6.07;1.77;;;;;;;;;;4977004;28;20108;-70
2023/10/20 11:56:41;;;;;;;2.53;1.88;;;;;;;;;;4978290;28;20099;-70
2023/10/20 11:59:08;;;;;;;3.00;1.40;;;;;;;;;;4977682;28;20054;-70
2023/10/20 12:01:34;;;;;;;2.53;1.42;;;;;;;;;;4978823;28;20085;-72
2023/10/20 12:03:59;;;;;;;1.65;1.38;;;;;;;;;;4977954;28;20129;-72
2023/10/20 12:06:25;;;;;;;1.40;1.30;;;;;;;;;;4978126;28;20046;-71
2023/10/20 12:08:51;;;;;;;1.55;1.17;;;;;;;;;;4978044;28;20049;-71
2023/10/20 12:11:18;;;;;;;3.10;1.00;;;;;;;;;;4977982;28;20046;-72
2023/10/20 12:13:47;;;;;;;1.75;1.13;;;;;;;;;;4978831;28;20065;-72
2023/10/20 12:16:14;;;;;;;1.38;1.08;;;;;;;;;;4976875;28;20526;-70
2023/10/20 12:18:41;;;;;;;1.00;0.90;;;;;;;;;;4977600;28;20054;-71
2023/10/20 12:21:07;;;;;;;1.40;0.82;;;;;;;;;;4977588;28;20090;-71
2023/10/20 12:23:33;;;;;;;0.60;0.60;;;;;;;;;;4978812;28;20488;-72
2023/10/20 12:25:59;;;;;;;0.80;0.68;;;;;;;;;;4977026;28;20496;-72
2023/10/20 12:28:26;;;;;;;4.57;0.70;;;;;;;;;;4976308;28;20138;-72
2023/10/20 12:30:52;;;;;;;0.68;0.68;;;;;;;;;;4976596;28;20077;-71
2023/10/20 12:33:17;;;;;;;0.73;0.73;;;;;;;;;;4972209;28;20221;-70
2023/10/20 12:35:43;;;;;;;1.55;0.88;;;;;;;;;;4977128;28;20049;-72
2023/10/20 12:38:09;;;;;;;1.95;0.80;;;;;;;;;;4976942;28;20539;-72
2023/10/20 12:40:39;;;;;;;0.65;0.65;;;;;;;;;;4975873;28;20058;-73
2023/10/20 12:43:09;;;;;;;0.80;0.80;;;;;;;;;;4977245;28;20046;-69
2023/10/20 12:45:37;;;;;;;0.70;0.55;;;;;;;;;;4977886;28;20082;-69
2023/10/20 12:48:02;;;;;;;0.73;0.52;;;;;;;;;;4975990;28;20073;-70
2023/10/20 12:50:32;;;;;;;1.75;0.50;;;;;;;;;;4977622;28;20076;-72
2023/10/20 12:52:58;;;;;;;0.95;0.52;;;;;;;;;;4976319;28;20050;-71
2023/10/20 12:55:24;;;;;;;0.82;0.57;;;;;;;;;;4977289;28;20050;-71
2023/10/20 12:57:50;;;;;;;0.50;0.50;;;;;;;;;;4959433;28;20884;-73
2023/10/20 13:00:16;;;;;;;1.50;0.68;;;;;;;;;;4975978;28;20046;-71
2023/10/20 13:02:43;;;;;;;4.38;0.68;;;;;;;;;;4975206;28;20088;-71
2023/10/20 13:05:09;;;;;;;6.50;0.60;;;;;;;;;;4976289;28;20074;-71
2023/10/20 13:07:35;;;;;;;0.60;0.60;;;;;;;;;;4974142;28;20515;-71
2023/10/20 13:10:04;;;;;;;0.40;0.40;;;;;;;;;;4969077;28;20129;-73
2023/10/20 13:12:30;;;;;;;0.50;0.50;;;;;;;;;;4970214;28;20046;-72
2023/10/20 13:14:56;;;;;;;4.53;0.85;;;;;;;;;;4991758;28;20042;-72
2023/10/20 13:17:22;;;;;;;0.50;0.50;;;;;;;;;;4975625;28;20958;-72
2023/10/20 13:19:49;;;;;;;0.30;0.30;;;;;;;;;;4975760;28;20050;-71
2023/10/20 13:22:15;;;;;;;1.98;0.40;;;;;;;;;;4976421;28;20046;-72
2023/10/20 13:24:41;;;;;;;0.50;0.50;;;;;;;;;;4975555;28;20777;-72
2023/10/20 13:27:07;;;;;;;0.70;0.60;;;;;;;;;;4975852;28;20567;-74
2023/10/20 13:29:32;;;;;;;0.80;0.80;;;;;;;;;;4975017;28;20115;-71
2023/10/20 13:31:58;;;;;;;0.80;0.60;;;;;;;;;;4975379;28;20142;-74
2023/10/20 13:34:23;;;;;;;2.63;0.60;;;;;;;;;;4975723;28;20046;-74
2023/10/20 13:36:49;;;;;;;1.13;0.90;;;;;;;;;;4975098;28;20141;-71
2023/10/20 13:39:16;;;;;;;0.70;0.70;;;;;;;;;;4977224;28;20407;-74
2023/10/20 13:41:41;;;;;;;0.80;0.80;;;;;;;;;;4976787;28;20080;-72
2023/10/20 13:44:08;;;;;;;1.50;0.80;;;;;;;;;;4976349;28;20042;-73
2023/10/20 13:46:33;;;;;;;1.27;0.85;;;;;;;;;;4974903;28;20082;-71
2023/10/20 13:48:59;;;;;;;1.58;0.80;;;;;;;;;;4976295;28;20117;-72
2023/10/20 13:51:24;;;;;;;1.23;0.80;;;;;;;;;;4976996;28;20073;-72
2023/10/20 13:53:50;;;;;;;0.82;0.82;;;;;;;;;;4974568;28;20050;-72
2023/10/20 13:56:15;;;;;;;1.15;1.05;;;;;;;;;;4976022;28;20066;-71
2023/10/20 13:58:42;;;;;;;1.00;0.90;;;;;;;;;;4977099;28;20042;-72
2023/10/20 14:01:07;;;;;;;2.65;0.90;;;;;;;;;;4975804;28;20266;-72
2023/10/20 14:03:33;;;;;;;1.08;0.98;;;;;;;;;;4993085;28;20144;-72
2023/10/20 14:05:58;;;;;;;1.38;1.10;;;;;;;;;;4977279;28;20062;-72
2023/10/20 14:08:24;;;;;;;1.45;1.13;;;;;;;;;;4974758;28;20054;-71
2023/10/20 14:10:50;;;;;;;0.80;0.80;;;;;;;;;;4976470;28;20045;-71
2023/10/20 14:13:16;;;;;;;3.17;1.45;;;;;;;;;;4976173;28;20057;-72
2023/10/20 14:15:44;;;;;;;1.05;1.05;;;;;;;;;;4977124;28;20061;-71
2023/10/20 14:18:10;;;;;;;1.50;1.15;;;;;;;;;;4975916;28;20066;-70
2023/10/20 14:20:35;;;;;;;1.70;0.98;;;;;;;;;;4976512;28;20049;-72
2023/10/20 14:23:04;;;;;;;1.10;1.00;;;;;;;;;;4981265;28;20571;-71
2023/10/20 14:25:30;;;;;;;1.05;0.95;;;;;;;;;;4980118;28;20057;-71
2023/10/20 14:27:55;;;;;;;0.80;0.80;;;;;;;;;;4979723;28;20046;-70
2023/10/20 14:30:20;;;;;;;1.42;0.73;;;;;;;;;;4981438;28;20038;-70
2023/10/20 14:32:46;;;;;;;1.92;0.93;;;;;;;;;;4979325;28;21686;-71
2023/10/20 14:35:12;;;;;;;1.15;1.05;;;;;;;;;;4980022;28;20133;-72
2023/10/20 14:37:38;;;;;;;0.85;0.85;;;;;;;;;;4980730;28;20073;-71
2023/10/20 14:40:04;;;;;;;1.95;1.05;;;;;;;;;;4981161;28;20104;-71
2023/10/20 14:42:30;;;;;;;0.80;0.80;;;;;;;;;;4981254;28;20150;-73
2023/10/20 14:44:56;;;;;;;0.50;0.50;;;;;;;;;;4979873;28;20058;-71
2023/10/20 14:47:21;;;;;;;0.60;0.60;;;;;;;;;;4980057;28;20085;-71
2023/10/20 14:49:47;;;;;;;1.38;0.65;;;;;;;;;;4979906;28;20042;-72
2023/10/20 14:52:12;;;;;;;2.33;0.90;;;;;;;;;;4981105;28;20049;-72
2023/10/20 14:54:38;;;;;;;0.80;0.80;;;;;;;;;;4978961;28;20141;-74
2023/10/20 14:57:04;;;;;;;0.60;0.60;;;;;;;;;;4981379;28;20130;-72
2023/10/20 14:59:30;;;;;;;0.60;0.60;;;;;;;;;;4979988;28;21029;-72
2023/10/20 15:01:55;;;;;;;0.52;0.52;;;;;;;;;;4979291;28;20085;-73